TimeCST,TemperatureF,Dew PointF,Humidity,Sea Level PressureIn,VisibilityMPH,Wind Direction,Wind SpeedMPH,Gust SpeedMPH,PrecipitationIn,Events,Conditions,WindDirDegrees,DateUTC
12:56 AM,21.0,15.1,78,30.27,10.0,Calm,Calm,-,N/A,,Clear,0,2013-02-18 06:56:00
1:56 AM,21.0,16.2,81,30.26,10.0,Calm,Calm,-,N/A,,Clear,0,2013-02-18 07:56:00
2:56 AM,31.1,16.2,54,30.25,10.0,North,6.9,-,N/A,,Clear,350,2013-02-18 08:56:00
3:56 AM,32.0,17.1,54,30.24,10.0,North,5.8,-,N/A,,Clear,360,2013-02-18 09:56:00
5:56 AM,34.9,18.1,51,30.24,10.0,North,10.4,-,N/A,,Clear,350,2013-02-18 11:56:00
6:56 AM,36.9,19.0,49,30.25,10.0,North,9.2,-,N/A,,Clear,360,2013-02-18 12:56:00
7:56 AM,41.9,21.0,43,30.26,10.0,North,12.7,-,N/A,,Clear,10,2013-02-18 13:56:00
8:56 AM,46.9,24.1,41,30.25,10.0,NNE,11.5,-,N/A,,Clear,20,2013-02-18 14:56:00
9:56 AM,50.9,30.0,45,30.23,10.0,NNE,17.3,-,N/A,,Partly Cloudy,30,2013-02-18 15:56:00
10:56 AM,54.0,34.0,47,30.21,10.0,NE,16.1,24.2,N/A,,Clear,40,2013-02-18 16:56:00
11:56 AM,56.8,36.0,46,30.17,10.0,NE,17.3,28.8,N/A,,Clear,40,2013-02-18 17:56:00
12:56 PM,59.0,32.9,37,30.12,10.0,North,13.8,23.0,N/A,,Clear,360,2013-02-18 18:56:00
1:56 PM,59.9,31.1,34,30.10,10.0,NNE,13.8,-,N/A,,Clear,20,2013-02-18 19:56:00
2:56 PM,59.9,29.1,31,30.06,10.0,NNW,20.7,-,N/A,,Clear,340,2013-02-18 20:56:00
3:56 PM,57.9,27.1,31,30.04,10.0,North,18.4,24.2,N/A,,Clear,360,2013-02-18 21:56:00
5:56 PM,52.9,28.0,38,30.01,10.0,North,18.4,-,N/A,,Clear,10,2013-02-18 23:56:00
6:56 PM,54.0,28.0,37,29.98,10.0,North,26.5,34.5,N/A,,Scattered Clouds,10,2013-02-19 00:56:00
8:56 PM,54.0,26.1,34,29.91,10.0,North,20.7,36.8,N/A,,Scattered Clouds,10,2013-02-19 02:56:00
9:56 PM,52.9,26.1,35,29.90,10.0,North,26.5,36.8,N/A,,Mostly Cloudy,10,2013-02-19 03:56:00
10:56 PM,46.9,34.9,63,29.94,4.0,NNE,19.6,25.3,0.00,Rain,Light Rain,30,2013-02-19 04:56:00
11:23 PM,46.4,37.4,71,29.91,3.0,NNE,15.0,-,0.03,Rain,Rain,20,2013-02-19 05:23:00
11:43 PM,44.6,37.4,76,29.89,3.0,North,16.1,26.5,0.05,Rain,Light Rain,360,2013-02-19 05:43:00
11:56 PM,43.9,37.9,80,29.92,2.5,North,12.7,-,0.08,Rain,Rain,10,2013-02-19 05:56:00